createdAt,value
2023-01-23T00:00:06.089Z,0.00
2023-01-23T00:01:04.706Z,0.00
2023-01-23T00:02:05.024Z,0.00
2023-01-23T00:03:05.320Z,0.00
2023-01-23T00:04:07.563Z,0.00
2023-01-23T00:05:05.960Z,0.00
2023-01-23T00:06:06.260Z,0.00
2023-01-23T00:07:06.538Z,0.00
2023-01-23T00:08:06.830Z,0.00
2023-01-23T00:09:09.030Z,0.00
2023-01-23T00:10:07.420Z,0.00
2023-01-23T00:11:07.699Z,0.00
2023-01-23T00:12:09.880Z,0.00
2023-01-23T00:13:08.259Z,0.00
2023-01-23T00:14:10.417Z,0.00
2023-01-23T00:15:08.790Z,0.00
2023-01-23T00:16:12.002Z,0.00
2023-01-23T00:17:11.168Z,0.00
2023-01-23T00:18:10.691Z,0.00
2023-01-23T00:19:10.851Z,0.00
2023-01-23T00:20:11.005Z,0.00
2023-01-23T00:21:10.502Z,0.00
2023-01-23T00:22:14.303Z,0.00
2023-01-23T00:23:12.853Z,0.00
2023-01-23T00:24:13.033Z,0.00
2023-01-23T00:25:13.244Z,0.00
2023-01-23T00:26:13.928Z,0.00
2023-01-23T00:27:14.133Z,0.00
2023-01-23T00:28:14.326Z,0.00
2023-01-23T00:29:14.514Z,0.00
2023-01-23T00:30:13.251Z,0.00
2023-01-23T00:31:13.733Z,0.00
2023-01-23T00:32:13.919Z,0.00
2023-01-23T00:33:14.221Z,0.00
2023-01-23T00:34:16.419Z,0.00
2023-01-23T00:35:14.802Z,0.00
2023-01-23T00:36:15.115Z,0.00
2023-01-23T00:37:15.400Z,0.00
2023-01-23T00:38:15.719Z,0.00
2023-01-23T00:39:17.905Z,0.00
2023-01-23T00:40:18.358Z,0.00
2023-01-23T00:41:16.555Z,0.00
2023-01-23T00:42:16.849Z,0.00
2023-01-23T00:43:17.167Z,0.00
2023-01-23T00:44:19.354Z,0.00
2023-01-23T00:45:17.749Z,0.00
2023-01-23T00:46:19.986Z,0.00
2023-01-23T00:47:20.118Z,0.00
2023-01-23T00:48:20.315Z,0.00
2023-01-23T00:49:22.105Z,0.00
2023-01-23T00:50:21.447Z,0.00
2023-01-23T00:51:21.425Z,0.00
2023-01-23T00:52:21.581Z,0.00
2023-01-23T00:53:21.767Z,0.00
2023-01-23T00:54:21.919Z,0.00
2023-01-23T00:55:22.620Z,0.00
2023-01-23T00:56:22.838Z,0.00
2023-01-23T00:57:23.027Z,0.00
2023-01-23T00:58:23.240Z,0.00
2023-01-23T00:59:23.924Z,0.00
2023-01-23T01:00:24.081Z,0.00
2023-01-23T01:01:24.320Z,0.00
2023-01-23T01:02:24.509Z,0.00
2023-01-23T01:03:23.234Z,0.00
2023-01-23T01:04:25.434Z,0.00
2023-01-23T01:05:25.623Z,0.00
2023-01-23T01:06:25.812Z,0.00
2023-01-23T01:07:26.001Z,0.00
2023-01-23T01:08:26.693Z,0.00
2023-01-23T01:09:26.859Z,0.00
2023-01-23T01:10:27.052Z,0.00
2023-01-23T01:11:25.665Z,0.00
2023-01-23T01:12:25.961Z,0.00
2023-01-23T01:13:26.258Z,0.00
2023-01-23T01:14:28.445Z,0.00
2023-01-23T01:15:28.618Z,0.00
2023-01-23T01:16:27.172Z,0.00
2023-01-23T01:17:29.301Z,0.00
2023-01-23T01:18:27.796Z,0.00
2023-01-23T01:19:28.108Z,0.00
2023-01-23T01:20:30.255Z,0.00
2023-01-23T01:21:30.434Z,0.00
2023-01-23T01:22:28.929Z,0.00
2023-01-23T01:23:29.284Z,0.00
2023-01-23T01:24:29.473Z,0.00
2023-01-23T01:25:31.675Z,0.00
2023-01-23T01:26:30.074Z,0.00
2023-01-23T01:27:30.350Z,0.00
2023-01-23T01:28:30.679Z,0.00
2023-01-23T01:29:30.958Z,0.00
2023-01-23T01:30:31.256Z,0.00
2023-01-23T01:31:33.580Z,0.00
2023-01-23T01:32:31.853Z,0.00
2023-01-23T01:33:32.142Z,0.00
2023-01-23T01:34:32.446Z,0.00
2023-01-23T01:35:32.734Z,0.00
2023-01-23T01:36:34.922Z,0.00
2023-01-23T01:37:33.303Z,0.00
2023-01-23T01:38:35.506Z,0.00
2023-01-23T01:39:33.861Z,0.00
2023-01-23T01:40:34.160Z,0.00
2023-01-23T01:41:35.226Z,0.00
2023-01-23T01:42:36.162Z,0.00
2023-01-23T01:43:35.809Z,0.00
2023-01-23T01:44:37.208Z,0.00
2023-01-23T01:45:35.580Z,0.00
2023-01-23T01:46:35.944Z,0.00
2023-01-23T01:47:36.203Z,0.00
2023-01-23T01:48:36.499Z,0.00
2023-01-23T01:49:38.684Z,0.00
2023-01-23T01:50:37.055Z,0.00
2023-01-23T01:51:39.248Z,0.00
2023-01-23T01:52:39.431Z,0.00
2023-01-23T01:53:37.925Z,0.00
2023-01-23T01:54:40.122Z,0.00
2023-01-23T01:55:38.493Z,0.00
2023-01-23T01:56:38.817Z,0.00
2023-01-23T01:57:39.099Z,0.00
2023-01-23T01:58:39.417Z,0.00
2023-01-23T01:59:41.597Z,0.00
2023-01-23T02:00:39.991Z,0.00
2023-01-23T02:01:40.289Z,0.00
2023-01-23T02:02:40.626Z,0.00
2023-01-23T02:03:40.902Z,0.00
2023-01-23T02:04:43.102Z,0.00
2023-01-23T02:05:43.288Z,0.00
2023-01-23T02:06:41.783Z,0.00
2023-01-23T02:07:42.199Z,0.00
2023-01-23T02:08:43.912Z,0.00
2023-01-23T02:09:44.598Z,0.00
2023-01-23T02:10:44.785Z,0.00
2023-01-23T02:11:44.976Z,0.00
2023-01-23T02:12:45.179Z,0.00
2023-01-23T02:13:45.869Z,0.00
2023-01-23T02:14:46.064Z,0.00
2023-01-23T02:15:44.553Z,0.00
2023-01-23T02:16:44.846Z,0.00
2023-01-23T02:17:47.027Z,0.00
2023-01-23T02:18:47.234Z,0.00
2023-01-23T02:19:45.718Z,0.00
2023-01-23T02:20:46.005Z,0.00
2023-01-23T02:21:48.214Z,0.00
2023-01-23T02:22:46.577Z,0.00
2023-01-23T02:23:48.756Z,0.00
2023-01-23T02:24:48.942Z,0.00
2023-01-23T02:25:49.137Z,0.00
2023-01-23T02:26:49.301Z,0.00
2023-01-23T02:27:49.963Z,0.00
2023-01-23T02:28:50.133Z,0.00
2023-01-23T02:29:50.320Z,0.00
2023-01-23T02:30:50.576Z,0.00
2023-01-23T02:31:50.752Z,0.00
2023-01-23T02:32:49.490Z,0.00
2023-01-23T02:33:49.769Z,0.00
2023-01-23T02:34:50.967Z,0.00
2023-01-23T02:35:51.172Z,0.00
2023-01-23T02:36:52.361Z,0.00
2023-01-23T02:37:50.979Z,0.00
2023-01-23T02:38:51.269Z,0.00
2023-01-23T02:39:51.558Z,0.00
2023-01-23T02:40:51.879Z,0.00
2023-01-23T02:41:52.175Z,0.00
2023-01-23T02:42:52.465Z,0.00
2023-01-23T02:43:52.787Z,0.00
2023-01-23T02:44:53.087Z,0.00
2023-01-23T02:45:55.342Z,0.00
2023-01-23T02:46:55.469Z,0.00
2023-01-23T02:47:53.966Z,0.00
2023-01-23T02:48:54.262Z,0.00
2023-01-23T02:49:54.569Z,0.00
2023-01-23T02:50:54.896Z,0.00
2023-01-23T02:51:57.060Z,0.00
2023-01-23T02:52:55.429Z,0.00
2023-01-23T02:53:57.619Z,0.00
2023-01-23T02:54:57.812Z,0.00
2023-01-23T02:55:57.976Z,0.00
2023-01-23T02:56:58.252Z,0.00
2023-01-23T02:57:58.845Z,0.00
2023-01-23T02:58:57.099Z,0.00
2023-01-23T02:59:59.294Z,0.00
2023-01-23T03:00:59.542Z,0.00
2023-01-23T03:01:59.703Z,0.00
2023-01-23T03:02:59.873Z,0.00
2023-01-23T03:04:00.572Z,0.00
2023-01-23T03:05:00.754Z,0.00
2023-01-23T03:05:59.245Z,0.00
2023-01-23T03:07:01.450Z,0.00
2023-01-23T03:07:59.834Z,0.00
2023-01-23T03:09:02.020Z,0.00
2023-01-23T03:10:00.400Z,0.00
2023-01-23T03:11:02.580Z,0.00
2023-01-23T03:12:00.960Z,0.00
2023-01-23T03:13:01.245Z,0.00
2023-01-23T03:14:03.430Z,0.00
2023-01-23T03:15:01.824Z,0.00
2023-01-23T03:16:04.022Z,0.00
2023-01-23T03:17:02.427Z,0.00
2023-01-23T03:18:02.724Z,0.00
2023-01-23T03:19:03.029Z,0.00
2023-01-23T03:20:03.340Z,0.00
2023-01-23T03:21:05.509Z,0.00
2023-01-23T03:22:03.886Z,0.00
2023-01-23T03:23:04.188Z,0.00
2023-01-23T03:24:04.487Z,0.00
2023-01-23T03:25:06.668Z,0.00
2023-01-23T03:26:06.839Z,0.00
2023-01-23T03:27:05.366Z,0.00
2023-01-23T03:28:07.568Z,0.00
2023-01-23T03:29:05.922Z,0.00
2023-01-23T03:30:06.212Z,0.00
2023-01-23T03:31:08.449Z,0.00
2023-01-23T03:32:06.819Z,0.00
2023-01-23T03:33:09.031Z,0.00
2023-01-23T03:34:09.187Z,0.00
2023-01-23T03:35:07.684Z,0.00
2023-01-23T03:36:12.836Z,0.00
2023-01-23T03:37:08.293Z,0.00
2023-01-23T03:38:08.569Z,0.00
2023-01-23T03:39:08.877Z,0.00
2023-01-23T03:40:11.051Z,0.00
2023-01-23T03:41:09.425Z,0.00
2023-01-23T03:42:09.752Z,0.00
2023-01-23T03:43:10.044Z,0.00
2023-01-23T03:44:10.342Z,0.00
2023-01-23T03:45:12.526Z,0.00
2023-01-23T03:46:10.907Z,0.00
2023-01-23T03:47:11.219Z,0.00
2023-01-23T03:48:11.529Z,0.00
2023-01-23T03:49:11.814Z,0.00
2023-01-23T03:50:14.060Z,0.00
2023-01-23T03:51:12.513Z,0.00
2023-01-23T03:52:12.765Z,0.00
2023-01-23T03:53:14.943Z,0.00
2023-01-23T03:54:13.312Z,0.00
2023-01-23T03:55:13.610Z,0.00
2023-01-23T03:56:15.792Z,0.00
2023-01-23T03:57:16.012Z,0.00
2023-01-23T03:58:16.198Z,0.00
2023-01-23T03:59:14.818Z,0.00
2023-01-23T04:00:15.103Z,0.00
2023-01-23T04:01:15.513Z,0.00
2023-01-23T04:02:17.588Z,0.00
2023-01-23T04:03:17.791Z,0.00
2023-01-23T04:04:16.292Z,0.00
2023-01-23T04:05:16.589Z,0.00
2023-01-23T04:06:18.811Z,0.00
2023-01-23T04:07:18.972Z,0.00
2023-01-23T04:08:19.170Z,0.00
2023-01-23T04:09:19.353Z,0.00
2023-01-23T04:10:20.231Z,0.00
2023-01-23T04:11:20.250Z,0.00
2023-01-23T04:12:20.429Z,0.00
2023-01-23T04:13:20.621Z,0.00
2023-01-23T04:14:19.348Z,0.00
2023-01-23T04:15:21.550Z,0.00
2023-01-23T04:16:21.756Z,0.00
2023-01-23T04:17:21.964Z,0.00
2023-01-23T04:18:22.152Z,0.00
2023-01-23T04:19:22.361Z,0.00
2023-01-23T04:20:21.467Z,0.00
2023-01-23T04:21:23.338Z,0.00
2023-01-23T04:22:23.502Z,0.00
2023-01-23T04:23:22.041Z,0.00
2023-01-23T04:24:24.233Z,0.00
2023-01-23T04:25:22.610Z,0.00
2023-01-23T04:26:24.793Z,0.00
2023-01-23T04:27:23.176Z,0.00
2023-01-23T04:28:25.365Z,0.00
2023-01-23T04:29:23.728Z,0.00
2023-01-23T04:30:25.936Z,0.00
2023-01-23T04:31:24.458Z,0.00
2023-01-23T04:32:26.517Z,0.00
2023-01-23T04:33:26.728Z,0.00
2023-01-23T04:34:26.042Z,0.00
2023-01-23T04:35:27.292Z,0.00
2023-01-23T04:36:27.487Z,0.00
2023-01-23T04:37:28.625Z,0.00
2023-01-23T04:38:27.802Z,0.00
2023-01-23T04:39:29.510Z,0.00
2023-01-23T04:40:28.710Z,0.00
2023-01-23T04:41:28.922Z,0.00
2023-01-23T04:42:29.083Z,0.00
2023-01-23T04:43:29.227Z,0.00
2023-01-23T04:44:29.914Z,0.00
2023-01-23T04:45:30.104Z,0.00
2023-01-23T04:46:30.292Z,0.00
2023-01-23T04:47:30.496Z,0.00
2023-01-23T04:48:31.146Z,0.00
2023-01-23T04:49:31.333Z,0.00
2023-01-23T04:50:31.524Z,0.00
2023-01-23T04:51:31.714Z,0.00
2023-01-23T04:52:32.392Z,0.00
2023-01-23T04:53:32.591Z,0.00
2023-01-23T04:54:32.487Z,0.00
2023-01-23T04:55:33.192Z,0.00
2023-01-23T04:56:31.673Z,0.00
2023-01-23T04:57:33.875Z,0.00
2023-01-23T04:58:32.253Z,0.00
2023-01-23T04:59:35.892Z,0.00
2023-01-23T05:00:34.605Z,0.00
2023-01-23T05:01:34.903Z,0.00
2023-01-23T05:02:33.402Z,0.00
2023-01-23T05:03:35.586Z,0.00
2023-01-23T05:04:35.764Z,0.00
2023-01-23T05:05:34.270Z,0.00
2023-01-23T05:06:36.458Z,0.00
2023-01-23T05:07:34.828Z,0.00
2023-01-23T05:08:35.116Z,0.00
2023-01-23T05:09:37.318Z,0.00
2023-01-23T05:10:35.634Z,0.00
2023-01-23T05:11:37.845Z,0.00
2023-01-23T05:12:36.228Z,0.00
2023-01-23T05:13:36.517Z,0.00
2023-01-23T05:14:38.700Z,0.00
2023-01-23T05:15:37.122Z,0.00
2023-01-23T05:16:37.395Z,0.00
2023-01-23T05:17:39.602Z,0.00
2023-01-23T05:18:37.953Z,0.00
2023-01-23T05:19:40.160Z,0.00
2023-01-23T05:20:38.527Z,0.00
2023-01-23T05:21:38.828Z,0.00
2023-01-23T05:22:39.125Z,0.00
2023-01-23T05:23:41.311Z,0.00
2023-01-23T05:24:41.498Z,0.00
2023-01-23T05:25:39.991Z,0.00
2023-01-23T05:26:42.178Z,0.00
2023-01-23T05:27:40.553Z,0.00
2023-01-23T05:28:40.855Z,0.00
2023-01-23T05:29:42.032Z,0.00
2023-01-23T05:30:41.503Z,0.00
2023-01-23T05:31:43.696Z,0.00
2023-01-23T05:32:41.952Z,0.00
2023-01-23T05:33:42.266Z,0.00
2023-01-23T05:34:42.569Z,0.00
2023-01-23T05:35:42.854Z,0.00
2023-01-23T05:36:45.039Z,0.00
2023-01-23T05:37:43.480Z,0.00
2023-01-23T05:38:43.688Z,0.00
2023-01-23T05:39:44.015Z,0.00
2023-01-23T05:40:46.316Z,0.00
2023-01-23T05:41:46.493Z,0.00
2023-01-23T05:42:45.875Z,0.00
2023-01-23T05:43:45.121Z,0.00
2023-01-23T05:44:45.418Z,0.00
2023-01-23T05:45:45.723Z,0.00
2023-01-23T05:46:46.019Z,0.00
2023-01-23T05:47:48.214Z,0.00
2023-01-23T05:48:46.586Z,0.00
2023-01-23T05:49:46.960Z,0.00
2023-01-23T05:50:47.153Z,0.00
2023-01-23T05:51:49.350Z,0.00
2023-01-23T05:52:49.537Z,0.00
2023-01-23T05:53:48.019Z,0.00
2023-01-23T05:54:48.346Z,0.00
2023-01-23T05:55:48.631Z,0.00
2023-01-23T05:56:48.924Z,0.00
2023-01-23T05:57:51.088Z,0.00
2023-01-23T05:58:49.471Z,0.00
2023-01-23T05:59:49.776Z,0.00
2023-01-23T06:00:51.069Z,0.00
2023-01-23T06:01:50.296Z,0.00
2023-01-23T06:02:52.581Z,0.00
2023-01-23T06:03:52.735Z,0.00
2023-01-23T06:04:51.212Z,0.00
2023-01-23T06:05:51.505Z,0.00
2023-01-23T06:06:51.839Z,0.00
2023-01-23T06:07:53.988Z,0.00
2023-01-23T06:08:52.495Z,0.00
2023-01-23T06:09:55.635Z,0.00
2023-01-23T06:10:53.945Z,0.00
2023-01-23T06:11:54.107Z,0.00
2023-01-23T06:12:55.508Z,0.00
2023-01-23T06:13:55.688Z,0.00
2023-01-23T06:14:55.889Z,0.00
2023-01-23T06:15:55.534Z,0.00
2023-01-23T06:16:55.683Z,0.00
2023-01-23T06:17:57.029Z,0.00
2023-01-23T06:18:56.204Z,0.00
2023-01-23T06:19:56.429Z,0.00
2023-01-23T06:20:55.788Z,0.00
2023-01-23T06:21:57.986Z,0.00
2023-01-23T06:22:58.175Z,0.00
2023-01-23T06:23:58.359Z,0.00
2023-01-23T06:24:58.572Z,0.00
2023-01-23T06:25:57.302Z,0.00
2023-01-23T06:26:59.475Z,0.00
2023-01-23T06:27:59.667Z,0.00
2023-01-23T06:28:59.818Z,0.00
2023-01-23T06:29:58.435Z,0.00
2023-01-23T06:30:58.830Z,0.00
2023-01-23T06:31:59.018Z,0.00
2023-01-23T06:33:01.188Z,0.00
2023-01-23T06:33:59.565Z,0.00
2023-01-23T06:34:59.850Z,0.00
2023-01-23T06:36:00.139Z,0.00
2023-01-23T06:37:00.430Z,0.00
2023-01-23T06:38:00.755Z,0.00
2023-01-23T06:39:02.941Z,0.00
2023-01-23T06:40:03.127Z,0.00
2023-01-23T06:41:01.614Z,0.00
2023-01-23T06:42:01.901Z,0.00
2023-01-23T06:43:03.090Z,0.00
2023-01-23T06:44:02.450Z,0.00
2023-01-23T06:45:04.643Z,0.00
2023-01-23T06:46:03.036Z,0.00
2023-01-23T06:47:05.228Z,0.00
2023-01-23T06:48:05.422Z,0.00
2023-01-23T06:49:06.381Z,0.00
2023-01-23T06:50:04.163Z,0.00
2023-01-23T06:51:06.372Z,0.00
2023-01-23T06:52:06.556Z,0.00
2023-01-23T06:53:06.750Z,0.00
2023-01-23T06:54:06.926Z,0.00
2023-01-23T06:55:05.667Z,0.00
2023-01-23T06:56:07.851Z,0.00
2023-01-23T06:57:06.220Z,0.00
2023-01-23T06:58:08.403Z,0.00
2023-01-23T06:59:06.797Z,0.00
2023-01-23T07:00:07.094Z,0.00
2023-01-23T07:01:09.299Z,0.00
2023-01-23T07:02:07.674Z,0.00
2023-01-23T07:03:08.013Z,0.00
2023-01-23T07:04:10.171Z,0.00
2023-01-23T07:05:08.565Z,0.00
2023-01-23T07:06:08.863Z,0.00
2023-01-23T07:07:09.174Z,0.00
2023-01-23T07:08:09.477Z,0.00
2023-01-23T07:09:11.663Z,0.00
2023-01-23T07:10:11.835Z,0.00
2023-01-23T07:11:10.364Z,0.00
2023-01-23T07:12:10.670Z,0.00
2023-01-23T07:13:11.010Z,0.00
2023-01-23T07:14:13.191Z,0.00
2023-01-23T07:15:11.565Z,0.00
2023-01-23T07:16:11.910Z,0.00
2023-01-23T07:17:12.100Z,5.62
2023-01-23T07:18:12.422Z,5.62
2023-01-23T07:19:14.610Z,5.62
2023-01-23T07:20:13.017Z,5.62
2023-01-23T07:21:13.342Z,5.62
2023-01-23T07:22:13.663Z,5.62
2023-01-23T07:23:15.862Z,5.62
2023-01-23T07:24:16.053Z,5.62
2023-01-23T07:25:16.235Z,11.25
2023-01-23T07:26:14.948Z,11.25
2023-01-23T07:27:15.144Z,11.25
2023-01-23T07:28:15.461Z,11.25
2023-01-23T07:29:15.781Z,11.25
2023-01-23T07:30:18.158Z,11.25
2023-01-23T07:31:16.385Z,16.88
2023-01-23T07:32:16.583Z,16.88
2023-01-23T07:33:16.904Z,16.88
2023-01-23T07:34:17.215Z,16.88
2023-01-23T07:35:19.403Z,22.50
2023-01-23T07:36:17.798Z,22.50
2023-01-23T07:37:18.121Z,22.50
2023-01-23T07:38:18.446Z,28.12
2023-01-23T07:39:18.761Z,28.12
2023-01-23T07:40:21.238Z,28.12
2023-01-23T07:41:21.154Z,28.12
2023-01-23T07:42:19.667Z,33.75
2023-01-23T07:43:21.876Z,33.75
2023-01-23T07:44:20.281Z,33.75
2023-01-23T07:45:22.463Z,33.75
2023-01-23T07:46:20.908Z,39.38
2023-01-23T07:47:23.078Z,39.38
2023-01-23T07:48:21.484Z,45.00
2023-01-23T07:49:21.731Z,45.00
2023-01-23T07:50:23.898Z,45.00
2023-01-23T07:51:22.237Z,45.00
2023-01-23T07:52:22.439Z,45.00
2023-01-23T07:53:22.773Z,50.62
2023-01-23T07:54:25.902Z,50.62
2023-01-23T07:55:25.133Z,50.62
2023-01-23T07:56:23.792Z,56.25
2023-01-23T07:57:25.957Z,56.25
2023-01-23T07:58:24.363Z,61.88
2023-01-23T07:59:24.703Z,67.50
2023-01-23T08:00:29.566Z,67.50
2023-01-23T08:01:25.199Z,73.12
2023-01-23T08:02:25.532Z,78.75
2023-01-23T08:03:25.864Z,78.75
2023-01-23T08:04:28.030Z,84.38
2023-01-23T08:05:28.210Z,84.38
2023-01-23T08:06:26.758Z,90.00
2023-01-23T08:07:27.092Z,90.00
2023-01-23T08:08:27.436Z,90.00
2023-01-23T08:09:27.759Z,95.62
2023-01-23T08:10:29.934Z,95.62
2023-01-23T08:11:30.618Z,101.25
2023-01-23T08:12:28.598Z,101.25
2023-01-23T08:13:28.932Z,101.25
2023-01-23T08:14:29.273Z,101.25
2023-01-23T08:15:31.476Z,106.88
2023-01-23T08:16:30.889Z,106.88
2023-01-23T08:17:32.077Z,106.88
2023-01-23T08:18:32.255Z,106.88
2023-01-23T08:19:32.458Z,112.50
2023-01-23T08:20:32.643Z,112.50
2023-01-23T08:21:33.326Z,118.12
2023-01-23T08:22:31.731Z,118.12
2023-01-23T08:23:32.085Z,123.75
2023-01-23T08:24:34.281Z,123.75
2023-01-23T08:25:32.601Z,123.75
2023-01-23T08:26:34.767Z,129.38
2023-01-23T08:27:34.970Z,123.75
2023-01-23T08:28:35.144Z,129.38
2023-01-23T08:29:35.351Z,123.75
2023-01-23T08:30:35.144Z,123.75
2023-01-23T08:31:36.274Z,129.38
2023-01-23T08:32:34.564Z,135.00
2023-01-23T08:33:36.767Z,140.62
2023-01-23T08:34:36.964Z,146.25
2023-01-23T08:35:37.148Z,151.88
2023-01-23T08:36:36.348Z,157.50
2023-01-23T08:37:36.232Z,163.12
2023-01-23T08:38:36.392Z,163.12
2023-01-23T08:39:36.721Z,163.12
2023-01-23T08:40:40.357Z,163.12
2023-01-23T08:41:39.091Z,157.50
2023-01-23T08:42:37.630Z,163.12
2023-01-23T08:43:37.967Z,174.38
2023-01-23T08:44:38.305Z,185.62
2023-01-23T08:45:40.561Z,185.62
2023-01-23T08:46:40.700Z,191.25
2023-01-23T08:47:39.228Z,191.25
2023-01-23T08:48:41.426Z,191.25
2023-01-23T08:49:41.591Z,191.25
2023-01-23T08:50:41.777Z,185.62
2023-01-23T08:51:40.434Z,185.62
2023-01-23T08:52:40.768Z,185.62
2023-01-23T08:53:42.950Z,185.62
2023-01-23T08:54:41.371Z,191.25
2023-01-23T08:55:41.716Z,202.50
2023-01-23T08:56:42.044Z,213.75
2023-01-23T08:57:44.232Z,219.38
2023-01-23T08:58:42.638Z,225.00
2023-01-23T08:59:42.992Z,230.62
2023-01-23T09:00:43.238Z,236.25
2023-01-23T09:01:43.445Z,247.50
2023-01-23T09:02:45.639Z,253.12
2023-01-23T09:03:44.001Z,253.12
2023-01-23T09:04:44.354Z,253.12
2023-01-23T09:05:44.689Z,241.88
2023-01-23T09:06:46.892Z,230.62
2023-01-23T09:07:47.072Z,213.75
2023-01-23T09:08:45.609Z,196.88
2023-01-23T09:09:45.946Z,196.88
2023-01-23T09:10:47.163Z,208.12
2023-01-23T09:11:48.520Z,213.75
2023-01-23T09:12:47.776Z,219.38
2023-01-23T09:13:47.083Z,225.00
2023-01-23T09:14:47.293Z,236.25
2023-01-23T09:15:47.585Z,247.50
2023-01-23T09:16:49.853Z,258.75
2023-01-23T09:17:48.343Z,270.00
2023-01-23T09:18:48.562Z,270.00
2023-01-23T09:19:48.905Z,264.38
2023-01-23T09:20:49.150Z,253.12
2023-01-23T09:21:49.488Z,247.50
2023-01-23T09:22:51.688Z,247.50
2023-01-23T09:23:50.102Z,247.50
2023-01-23T09:24:50.445Z,253.12
2023-01-23T09:25:50.686Z,253.12
2023-01-23T09:26:51.022Z,258.75
2023-01-23T09:27:53.201Z,264.38
2023-01-23T09:28:51.598Z,275.62
2023-01-23T09:29:53.806Z,292.50
2023-01-23T09:30:52.252Z,309.38
2023-01-23T09:31:54.403Z,326.25
2023-01-23T09:32:54.582Z,343.12
2023-01-23T09:33:54.779Z,348.75
2023-01-23T09:34:54.963Z,354.38
2023-01-23T09:35:53.710Z,365.62
2023-01-23T09:36:54.028Z,371.25
2023-01-23T09:37:59.160Z,393.75
2023-01-23T09:38:54.599Z,405.00
2023-01-23T09:39:54.827Z,399.38
2023-01-23T09:40:55.156Z,388.12
2023-01-23T09:41:57.352Z,382.50
2023-01-23T09:42:57.539Z,382.50
2023-01-23T09:43:56.059Z,405.00
2023-01-23T09:44:58.239Z,438.75
2023-01-23T09:45:56.577Z,461.25
2023-01-23T09:46:56.776Z,472.50
2023-01-23T09:47:57.018Z,483.75
2023-01-23T09:48:58.340Z,495.00
2023-01-23T09:49:59.521Z,489.38
2023-01-23T09:50:59.797Z,466.88
2023-01-23T09:51:58.163Z,455.62
2023-01-23T09:53:00.398Z,433.12
2023-01-23T09:53:59.620Z,393.75
2023-01-23T09:55:00.848Z,365.62
2023-01-23T09:55:59.131Z,343.12
2023-01-23T09:57:01.334Z,326.25
2023-01-23T09:58:01.535Z,315.00
2023-01-23T09:59:01.732Z,298.12
2023-01-23T10:00:01.939Z,286.88
2023-01-23T10:01:02.664Z,286.88
2023-01-23T10:02:02.819Z,292.50
2023-01-23T10:03:03.018Z,286.88
2023-01-23T10:04:01.660Z,281.25
2023-01-23T10:05:03.866Z,270.00
2023-01-23T10:06:04.006Z,264.38
2023-01-23T10:07:04.205Z,264.38
2023-01-23T10:08:04.392Z,258.75
2023-01-23T10:09:05.095Z,247.50
2023-01-23T10:10:07.047Z,247.50
2023-01-23T10:11:05.465Z,247.50
2023-01-23T10:12:04.653Z,247.50
2023-01-23T10:13:06.346Z,253.12
2023-01-23T10:14:06.515Z,253.12
2023-01-23T10:15:06.700Z,253.12
2023-01-23T10:16:06.857Z,258.75
2023-01-23T10:17:07.091Z,264.38
2023-01-23T10:18:08.758Z,264.38
2023-01-23T10:19:06.042Z,270.00
2023-01-23T10:20:06.346Z,270.00
2023-01-23T10:21:08.538Z,275.62
2023-01-23T10:22:07.749Z,286.88
2023-01-23T10:23:07.283Z,292.50
2023-01-23T10:24:09.452Z,292.50
2023-01-23T10:25:09.659Z,298.12
2023-01-23T10:26:09.844Z,298.12
2023-01-23T10:27:10.042Z,298.12
2023-01-23T10:28:10.967Z,298.12
2023-01-23T10:29:10.934Z,298.12
2023-01-23T10:30:11.075Z,298.12
2023-01-23T10:31:11.315Z,309.38
2023-01-23T10:32:11.925Z,320.62
2023-01-23T10:33:12.110Z,331.88
2023-01-23T10:34:12.273Z,331.88
2023-01-23T10:35:12.436Z,343.12
2023-01-23T10:36:12.434Z,360.00
2023-01-23T10:37:13.260Z,376.88
2023-01-23T10:38:13.434Z,382.50
2023-01-23T10:39:13.609Z,376.88
2023-01-23T10:40:12.266Z,365.62
2023-01-23T10:41:14.470Z,354.38
2023-01-23T10:42:12.857Z,343.12
2023-01-23T10:43:15.052Z,331.88
2023-01-23T10:44:15.241Z,331.88
2023-01-23T10:45:13.749Z,337.50
2023-01-23T10:46:14.161Z,343.12
2023-01-23T10:47:14.313Z,343.12
2023-01-23T10:48:16.324Z,337.50
2023-01-23T10:49:15.160Z,331.88
2023-01-23T10:50:15.232Z,320.62
2023-01-23T10:51:17.425Z,326.25
2023-01-23T10:52:15.843Z,331.88
2023-01-23T10:53:16.176Z,337.50
2023-01-23T10:54:30.314Z,343.12
2023-01-23T10:55:20.149Z,343.12
2023-01-23T10:56:18.889Z,354.38
2023-01-23T10:57:17.285Z,360.00
2023-01-23T10:58:17.618Z,360.00
2023-01-23T10:59:17.841Z,360.00
2023-01-23T11:00:18.154Z,365.62
2023-01-23T11:01:20.396Z,371.25
2023-01-23T11:02:18.883Z,382.50
2023-01-23T11:03:19.015Z,393.75
2023-01-23T11:04:19.264Z,405.00
2023-01-23T11:05:21.635Z,410.62
2023-01-23T11:06:19.827Z,416.25
2023-01-23T11:07:20.084Z,421.88
2023-01-23T11:08:22.307Z,427.50
2023-01-23T11:09:20.644Z,427.50
2023-01-23T11:10:20.880Z,427.50
2023-01-23T11:11:21.222Z,433.12
2023-01-23T11:12:23.386Z,433.12
2023-01-23T11:13:23.561Z,433.12
2023-01-23T11:14:22.005Z,427.50
2023-01-23T11:15:22.667Z,416.25
2023-01-23T11:16:24.428Z,410.62
2023-01-23T11:17:22.856Z,399.38
2023-01-23T11:18:23.088Z,388.12
2023-01-23T11:19:23.328Z,376.88
2023-01-23T11:20:23.667Z,365.62
2023-01-23T11:21:24.012Z,360.00
2023-01-23T11:22:26.197Z,354.38
2023-01-23T11:23:26.408Z,343.12
2023-01-23T11:24:39.096Z,337.50
2023-01-23T11:25:26.139Z,331.88
2023-01-23T11:26:27.324Z,326.25
2023-01-23T11:27:27.509Z,326.25
2023-01-23T11:28:26.034Z,326.25
2023-01-23T11:29:29.172Z,326.25
2023-01-23T11:30:28.407Z,326.25
2023-01-23T11:31:28.725Z,331.88
2023-01-23T11:32:28.262Z,337.50
2023-01-23T11:33:27.665Z,337.50
2023-01-23T11:34:28.001Z,337.50
2023-01-23T11:35:30.193Z,337.50
2023-01-23T11:36:28.579Z,331.88
2023-01-23T11:37:30.777Z,331.88
2023-01-23T11:38:31.251Z,337.50
2023-01-23T11:39:31.343Z,337.50
2023-01-23T11:40:31.539Z,337.50
2023-01-23T11:41:31.728Z,343.12
2023-01-23T11:42:31.927Z,348.75
2023-01-23T11:43:32.603Z,360.00
2023-01-23T11:44:45.104Z,365.62
2023-01-23T11:45:33.998Z,365.62
2023-01-23T11:46:33.261Z,371.25
2023-01-23T11:47:33.858Z,371.25
2023-01-23T11:48:33.017Z,365.62
2023-01-23T11:49:33.377Z,365.62
2023-01-23T11:50:35.404Z,360.00
2023-01-23T11:51:35.957Z,360.00
2023-01-23T11:52:35.122Z,365.62
2023-01-23T11:53:42.169Z,371.25
2023-01-23T11:54:36.509Z,376.88
2023-01-23T11:55:34.921Z,382.50
2023-01-23T11:56:36.382Z,388.12
2023-01-23T11:57:36.579Z,388.12
2023-01-23T11:58:49.166Z,388.12
2023-01-23T11:59:36.402Z,388.12
2023-01-23T12:00:36.477Z,388.12
2023-01-23T12:01:37.871Z,388.12
2023-01-23T12:02:39.353Z,382.50
2023-01-23T12:03:38.231Z,376.88
2023-01-23T12:04:38.832Z,376.88
2023-01-23T12:05:38.987Z,371.25
2023-01-23T12:06:39.149Z,365.62
2023-01-23T12:07:39.307Z,360.00
2023-01-23T12:08:37.993Z,354.38
2023-01-23T12:09:40.179Z,348.75
2023-01-23T12:10:40.364Z,348.75
2023-01-23T12:11:40.555Z,354.38
2023-01-23T12:12:40.732Z,354.38
2023-01-23T12:13:40.922Z,354.38
2023-01-23T12:14:41.613Z,354.38
2023-01-23T12:15:41.869Z,354.38
2023-01-23T12:16:41.985Z,354.38
2023-01-23T12:17:42.162Z,354.38
2023-01-23T12:18:42.845Z,343.12
2023-01-23T12:19:43.050Z,326.25
2023-01-23T12:20:43.205Z,315.00
2023-01-23T12:21:43.375Z,303.75
2023-01-23T12:22:44.051Z,298.12
2023-01-23T12:23:44.229Z,298.12
2023-01-23T12:24:42.781Z,292.50
2023-01-23T12:25:42.986Z,286.88
2023-01-23T12:26:43.323Z,275.62
2023-01-23T12:27:43.709Z,270.00
2023-01-23T12:28:45.876Z,258.75
2023-01-23T12:29:44.164Z,241.88
2023-01-23T12:30:46.359Z,225.00
2023-01-23T12:31:44.815Z,219.38
2023-01-23T12:32:46.970Z,219.38
2023-01-23T12:33:47.147Z,230.62
2023-01-23T12:34:45.682Z,241.88
2023-01-23T12:35:47.868Z,247.50
2023-01-23T12:37:06.859Z,241.88
2023-01-23T12:37:47.707Z,236.25
2023-01-23T12:38:48.785Z,225.00
2023-01-23T12:39:47.195Z,219.38
2023-01-23T12:40:47.545Z,225.00
2023-01-23T12:41:47.880Z,225.00
2023-01-23T12:42:50.055Z,225.00
2023-01-23T12:43:50.236Z,225.00
2023-01-23T12:44:48.802Z,219.38
2023-01-23T12:45:49.129Z,219.38
2023-01-23T12:46:49.521Z,225.00
2023-01-23T12:47:49.762Z,236.25
2023-01-23T12:48:50.127Z,236.25
2023-01-23T12:49:52.312Z,225.00
2023-01-23T12:50:50.876Z,213.75
2023-01-23T12:51:50.944Z,196.88
2023-01-23T12:52:51.215Z,185.62
2023-01-23T12:53:54.162Z,185.62
2023-01-23T12:54:51.885Z,191.25
2023-01-23T12:55:54.068Z,196.88
2023-01-23T12:56:52.506Z,196.88
2023-01-23T12:58:00.007Z,191.25
2023-01-23T12:58:56.002Z,191.25
2023-01-23T12:59:53.411Z,191.25
2023-01-23T13:00:55.632Z,196.88